Midway, AR

5:06 AM CDT on April 18, 2015 (GMT -0500)
Boone County | | Change Station
CLOSE
Current Station
Airport
Location: Harrison,
Elevation: 1365 ft
Nearby Weather Stations

Elev 1365 ft 36.26 °N, 93.15 °W | Updated 13 minutes ago

Mostly Cloudy
Mostly Cloudy
57 °F
Feels Like 57 °F
N
8
Wind Variable Wind from SE

Today
High -- | Low -- °F
--% Chance of Precip.
Yesterday
High -- | Low -- °F
Precip. -- in
6:32 AM 7:46 PM
Waning Crescent, 0% visible
Pressure 29.95 in
Visibility 8.0 miles
Clouds Clear
Dew Point 57 °F
Humidity 100%
Rainfall 0.00 in
Snow Depth Not available.
UV 0 out of 12
Pollen 11.30 out of 12
Air Quality Not available.
Flu Activity Sporadic
METAR KHRO 180953Z AUTO 14007KT 8SM CLR 14/14 A2998 RMK AO2 SLP142 T01390139

More Conditions Fewer Conditions

Pressure 29.95 in
Visibility 8.0 miles
Clouds Clear
Dew Point 57 °F
Humidity 100%
Rainfall 0.00 in
Snow Depth Not available.
UV 0 out of 12
Pollen 11.30 out of 12
Air Quality Not available.
Flu Activity Sporadic
METAR KHRO 180953Z AUTO 14007KT 8SM CLR 14/14 A2998 RMK AO2 SLP142 T01390139

More Conditions Fewer Conditions

10-Day Weather Forecast

Almanac

Astronomy

Apr. 18, 2015 Rise Set
Actual Time
Civil Twilight
Nautical Twilight
Astronomical Twilight
Moon
Length of Visible Light
Length of Day
Tomorrow will be .
, % of the Moon is Illuminated

Today's Extremes

State Highs State Lows

Community

WunderPhotos

Upload Photos

1,814,352 photos uploaded!

WunderBlogs® & News

Nearby

Air Quality

  Air Quality AQ Index Pollutant
Not available.

Snow Depth

Station Depth Elevation

Earthquake Activity

City Distance Mag. Time & Date
Minimum magnitude displayed is 2.5.

Coastal Water Temperatures

Place Temperature

Stations

Nearby Weather Stations

Station Location Temp. Windchill Dew Point Humidity Wind Precip. Elev Updated Type